Latest Weather Observations for Whyalla

IDS60801

Issued at 10:31 am CDT Sunday 28 November 2021 (issued every 10 minutes, with the page automatically refreshed every 10 minutes)

About weather observations | Map of weather stations | Latest weather observations for SA | Other Formats
Station Details ID: 018120 Name: WHYALLA AERO Lat: -33.05 Lon: 137.52 Height: 9.3 m
Data from the previous 72 hours. | See also: Recent months at Whyalla
Date/Time
CDT
Temp
°C
App
Temp
°C
Dew
Point
°C
Rel
Hum
%
Delta-T
°C
Wind Press
QNH
hPa
Press
MSL
hPa
Rain since
9am
mm
Dir  Spd
km/h
Gust
km/h
Spd
kts
Gust
kts
28/10:30am 19.5 17.1 12.8 65 3.8 S 17 20 9 11 1020.8 1020.8 0.0
28/10:00am 19.4 17.3 13.6 69 3.3 SSE 17 20 9 11 1020.9 1020.9 0.0
28/09:30am 19.2 17.3 12.9 67 3.5 SSE 15 20 8 11 1020.9 1020.9 0.0
28/09:00am 18.7 16.4 14.2 75 2.6 S 19 26 10 14 1020.8 1020.8 0.0
28/08:30am 18.1 15.4 13.6 75 2.5 S 20 24 11 13 1020.7 1020.7 0.0
28/08:00am 17.8 16.2 14.9 83 1.7 S 17 20 9 11 1020.4 1020.4 0.0
28/07:30am 16.6 15.1 14.2 86 1.4 SSW 15 19 8 10 1020.2 1020.2 0.0
28/07:00am 14.7 14.0 13.1 90 0.9 SW 9 11 5 6 1020.0 1020.0 0.0
28/06:30am 13.7 11.6 12.4 92 0.7 SSW 15 19 8 10 1019.6 1019.6 0.0
28/06:00am 13.4 11.2 12.1 92 0.7 SSW 15 19 8 10 1019.4 1019.4 0.0
28/05:30am 12.6 11.7 11.2 91 0.7 SW 7 9 4 5 1019.2 1019.2 0.0
28/05:00am 12.9 11.6 11.3 90 0.8 SSW 9 11 5 6 1019.2 1019.2 0.0
28/04:30am 13.4 12.2 11.5 88 1.0 SW 9 11 5 6 1019.4 1019.4 0.0
28/04:00am 14.7 12.8 11.8 83 1.6 SSW 13 20 7 11 1019.4 1019.4 0.0
28/03:30am 14.0 12.4 11.5 85 1.3 SW 11 13 6 7 1019.5 1019.5 0.0
28/03:00am 16.0 13.0 12.4 79 2.0 S 20 30 11 16 1019.4 1019.4 0.0
28/02:30am 16.1 13.3 12.7 80 1.9 S 19 24 10 13 1019.6 1019.6 0.0
28/02:00am 16.2 13.6 13.1 82 1.7 SSW 19 22 10 12 1019.9 1019.9 0.0
28/01:30am 16.3 13.0 12.8 80 1.9 S 22 33 12 18 1019.9 1019.9 0.0
28/01:00am 16.4 13.4 12.6 78 2.1 S 20 28 11 15 1020.2 1020.2 0.0
28/12:30am 16.4 13.9 12.2 76 2.3 S 17 22 9 12 1020.5 1020.5 0.0
28/12:00am 16.7 13.7 12.0 74 2.6 S 19 24 10 13 1020.7 1020.7 0.0
 
Date/Time
CDT
Temp
°C
App
Temp
°C
Dew
Point
°C
Rel
Hum
%
Delta-T
°C
Wind Press
QNH
hPa
Press
MSL
hPa
Rain since
9am
mm
Dir  Spd
km/h
Gust
km/h
Spd
kts
Gust
kts
27/11:30pm 16.8 13.6 11.9 73 2.7 S 20 26 11 14 1020.6 1020.6 0.0
27/11:00pm 17.4 13.4 11.7 69 3.1 SSE 24 33 13 18 1020.5 1020.5 0.0
27/10:30pm 17.8 14.2 12.0 69 3.2 SSE 22 30 12 16 1020.4 1020.4 0.0
27/10:00pm 18.6 14.7 12.1 66 3.6 SSE 24 32 13 17 1020.2 1020.2 0.0
27/09:30pm 18.1 15.0 13.4 74 2.7 SSW 22 32 12 17 1019.6 1019.6 0.0
27/09:00pm 18.3 14.6 12.7 70 3.1 SSW 24 33 13 18 1019.3 1019.3 0.0
27/08:30pm 18.5 13.8 13.1 71 3.0 SSW 30 41 16 22 1019.0 1019.0 0.0
27/08:00pm 19.0 12.7 12.3 65 3.7 SSW 37 48 20 26 1018.8 1018.8 0.0
27/07:30pm 19.4 13.5 12.4 64 3.9 SSW 35 46 19 25 1018.5 1018.5 0.0
27/07:00pm 20.0 13.7 12.3 61 4.3 S 37 52 20 28 1018.1 1018.1 0.0
27/06:30pm 21.1 15.2 12.3 57 4.9 S 35 50 19 27 1017.8 1017.8 0.0
27/06:00pm 21.8 15.2 11.2 51 5.9 S 37 50 20 27 1017.6 1017.6 0.0
27/05:30pm 21.7 14.9 12.0 54 5.4 S 39 50 21 27 1017.5 1017.5 0.0
27/05:00pm 23.0 17.2 12.6 52 5.9 S 35 46 19 25 1017.7 1017.7 0.0
27/04:30pm 22.4 15.3 10.9 48 6.3 S 39 48 21 26 1017.7 1017.7 0.0
27/04:00pm 23.7 17.6 11.7 47 6.8 S 35 44 19 24 1018.1 1018.1 0.0
27/03:30pm 23.1 17.1 10.9 46 6.8 S 33 46 18 25 1018.2 1018.2 0.0
27/03:00pm 23.4 17.6 11.5 47 6.7 S 33 43 18 23 1018.5 1018.5 0.0
27/02:30pm 22.4 16.3 11.8 51 5.9 S 35 46 19 25 1018.7 1018.7 0.0
27/02:00pm 22.3 17.0 13.1 56 5.3 S 33 39 18 21 1019.1 1019.1 0.0
27/01:30pm 21.6 16.8 13.0 58 4.9 S 30 39 16 21 1019.5 1019.5 0.0
27/01:00pm 20.8 16.3 12.5 59 4.7 S 28 35 15 19 1019.9 1019.9 0.0
27/12:30pm 20.1 15.5 11.1 56 4.9 S 26 35 14 19 1020.3 1020.3 0.0
27/12:00pm 20.2 15.3 11.4 57 4.8 S 28 35 15 19 1020.4 1020.4 0.0
27/11:30am 19.2 14.7 11.3 60 4.3 S 26 33 14 18 1020.6 1020.6 0.0
27/11:00am 19.1 15.9 11.9 63 4.0 SSE 20 26 11 14 1020.8 1020.8 0.0
27/10:30am 18.2 14.3 12.0 67 3.4 S 24 35 13 19 1020.8 1020.8 0.0
27/10:00am 18.3 14.5 12.3 68 3.3 SSE 24 35 13 19 1020.9 1020.9 0.0
27/09:30am 18.3 14.1 12.3 68 3.3 SSE 26 35 14 19 1021.0 1021.0 0.0
27/09:00am 17.7 13.4 12.2 70 3.0 SSE 26 33 14 18 1021.0 1021.0 0.0
27/08:30am 17.0 13.0 11.7 71 2.9 SSE 24 33 13 18 1020.6 1020.6 0.0
27/08:00am 16.9 12.8 11.6 71 2.9 SSE 24 32 13 17 1020.3 1020.3 0.0
27/07:30am 16.2 12.6 12.0 76 2.3 SSE 22 30 12 16 1020.0 1020.0 0.0
27/07:00am 16.0 12.2 12.4 79 2.0 S 24 32 13 17 1019.7 1019.7 0.0
27/06:30am 15.5 12.5 12.4 82 1.7 S 20 26 11 14 1019.4 1019.4 0.0
27/06:00am 15.4 12.0 12.5 83 1.6 S 22 32 12 17 1019.1 1019.1 0.0
27/05:30am 15.5 12.1 12.4 82 1.7 S 22 33 12 18 1018.9 1018.9 0.0
27/05:00am 15.8 12.8 12.7 82 1.7 S 20 30 11 16 1019.0 1019.0 0.0
27/04:30am 15.8 12.4 12.5 81 1.8 S 22 32 12 17 1018.7 1018.7 0.0
27/04:00am 15.7 12.6 12.3 80 1.9 S 20 30 11 16 1018.6 1018.6 0.0
27/03:30am 16.0 12.6 12.4 79 2.0 SSE 22 30 12 16 1018.5 1018.5 0.0
27/03:00am 15.9 12.8 12.3 79 2.0 SSE 20 30 11 16 1018.7 1018.7 0.0
27/02:30am 15.6 11.7 12.2 80 1.9 SSE 24 33 13 18 1018.9 1018.9 0.0
27/02:00am 15.4 11.5 12.0 80 1.8 SSE 24 33 13 18 1019.1 1019.1 0.0
27/01:30am 15.6 11.7 12.0 79 2.0 SSE 24 32 13 17 1019.3 1019.3 0.0
27/01:00am 15.5 12.0 12.1 80 1.9 SSE 22 33 12 18 1019.5 1019.5 0.0
27/12:30am 15.4 11.4 11.8 79 1.9 SSE 24 32 13 17 1019.7 1019.7 0.0
27/12:00am 15.3 10.5 11.5 78 2.0 SSE 28 37 15 20 1019.6 1019.6 0.0
 
Date/Time
CDT
Temp
°C
App
Temp
°C
Dew
Point
°C
Rel
Hum
%
Delta-T
°C
Wind Press
QNH
hPa
Press
MSL
hPa
Rain since
9am
mm
Dir  Spd
km/h
Gust
km/h
Spd
kts
Gust
kts
26/11:30pm 15.3 10.4 11.3 77 2.1 SSE 28 39 15 21 1019.6 1019.6 0.0
26/11:00pm 15.3 10.0 11.1 76 2.2 S 30 43 16 23 1019.6 1019.6 0.0
26/10:30pm 15.3 10.2 10.7 74 2.4 S 28 41 15 22 1019.6 1019.6 0.0
26/10:00pm 15.7 10.0 9.8 68 3.1 SSE 30 43 16 23 1019.4 1019.4 0.0
26/09:30pm 15.7 11.0 9.4 66 3.2 S 24 35 13 19 1019.1 1019.1 0.0
26/09:00pm 15.9 9.9 8.6 62 3.7 S 30 43 16 23 1018.9 1018.9 0.0
26/08:30pm 16.1 9.3 7.8 58 4.2 S 33 44 18 24 1018.7 1018.7 0.0
26/08:00pm 16.4 9.1 8.6 60 4.0 S 37 50 20 27 1018.3 1018.3 0.0
26/07:30pm 17.2 10.3 8.9 58 4.3 S 35 46 19 25 1018.0 1018.0 0.0
26/07:00pm 17.4 9.7 10.3 63 3.8 SSW 41 52 22 28 1017.7 1017.7 0.0
26/06:30pm 18.3 11.1 7.7 50 5.4 S 35 48 19 26 1017.6 1017.6 0.0
26/06:00pm 17.6 10.2 10.0 61 4.0 SSW 39 54 21 29 1017.4 1017.4 0.0
26/05:50pm 17.6 9.5 10.0 61 4.0 SSW 43 61 23 33 1017.2 1017.2 0.0
26/05:30pm 17.9 9.6 9.5 58 4.4 SSW 43 57 23 31 1017.2 1017.2 0.0
26/05:12pm 18.1 10.7 9.7 58 4.4 S 39 57 21 31 1017.2 1017.2 0.0
26/05:00pm 18.7 10.4 10.0 57 4.6 S 44 56 24 30 1017.2 1017.2 0.0
26/04:30pm 17.9 9.7 10.5 62 4.0 S 44 57 24 31 1017.3 1017.3 0.0
26/04:00pm 19.9 11.9 10.6 55 5.0 SSW 43 56 23 30 1017.5 1017.5 0.0
26/03:30pm 18.4 9.9 8.7 53 5.0 S 43 56 23 30 1017.8 1017.8 0.0
26/03:00pm 18.9 10.5 9.7 55 4.9 S 44 59 24 32 1017.8 1017.8 0.0
26/02:52pm 18.4 10.5 9.2 55 4.8 S 41 59 22 32 1017.7 1017.7 0.0
26/02:30pm 18.2 9.9 9.3 56 4.7 S 43 54 23 29 1018.1 1018.1 0.0
26/02:20pm 19.0 12.0 9.8 55 4.9 S 37 56 20 30 1018.1 1018.1 0.0
26/02:00pm 18.6 10.1 8.6 52 5.2 S 43 56 23 30 1018.2 1018.2 0.0
26/01:30pm 19.0 11.4 9.2 53 5.1 S 39 50 21 27 1018.2 1018.2 0.0
26/01:00pm 18.6 10.3 9.4 55 4.8 S 43 54 23 29 1018.4 1018.4 0.0
26/12:30pm 18.4 11.7 9.5 56 4.7 SSE 35 50 19 27 1018.5 1018.5 0.0
26/12:00pm 18.1 11.8 11.0 63 3.8 S 35 44 19 24 1018.7 1018.7 0.0
26/11:30am 18.0 13.1 11.3 65 3.6 SSE 28 39 15 21 1018.8 1018.8 0.0
26/11:00am 17.2 11.3 10.3 64 3.7 SSE 32 43 17 23 1018.9 1018.9 0.0
26/10:30am 16.7 11.6 10.5 67 3.3 SE 28 37 15 20 1018.8 1018.8 0.0
26/10:00am 15.9 10.2 11.3 74 2.5 SSE 32 44 17 24 1018.9 1018.9 0.0
26/09:40am 15.5 9.7 11.5 77 2.2 SSE 33 52 18 28 1018.9 1018.9 0.0
26/09:30am 15.5 9.4 11.7 78 2.0 SSE 35 50 19 27 1018.8 1018.8 0.0
26/09:25am 15.3 9.1 11.5 78 2.0 S 35 50 19 27 1018.8 1018.8 0.0
26/09:18am 15.0 9.6 12.3 84 1.5 S 32 50 17 27 1018.8 1018.8 0.0
26/09:00am 14.4 9.1 13.0 91 0.8 SSE 33 50 18 27 1019.0 1019.0 0.8
26/08:44am 14.7 9.4 13.2 91 0.8 SSE 33 50 18 27 1018.7 1018.7 0.6
26/08:43am 14.7 9.6 13.1 90 0.9 SSE 32 50 17 27 1018.6 1018.6 0.6
26/08:30am 14.3 9.0 13.0 92 0.7 SSE 33 46 18 25 1018.6 1018.6 0.4
26/08:21am 14.9 9.5 12.8 87 1.2 SSE 33 46 18 25 1018.4 1018.4 0.2
26/08:13am 16.0 10.7 12.6 80 1.9 SSE 32 50 17 27 1018.3 1018.3 0.2
26/08:00am 14.9 9.4 12.6 86 1.3 SSE 33 46 18 25 1018.2 1018.2 0.2
26/07:58am 15.5 10.3 13.3 87 1.2 SSE 33 46 18 25 1018.1 1018.1 0.2
26/07:30am 14.8 10.3 12.7 87 1.1 SSE 28 41 15 22 1017.7 1017.7 0.2
26/07:24am 14.9 10.6 13.3 90 0.9 SSE 28 46 15 25 1017.8 1017.8 0.2
26/07:00am 15.8 10.3 12.4 80 1.9 SSE 33 48 18 26 1017.4 1017.4 0.2
26/06:30am 15.7 10.9 12.8 83 1.6 S 30 44 16 24 1017.1 1017.1 0.2
26/06:00am 16.1 11.3 11.7 75 2.4 SSE 28 43 15 23 1016.8 1016.8 0.2
26/05:30am 16.1 11.3 11.7 75 2.4 SSE 28 39 15 21 1016.5 1016.5 0.2
26/05:00am 16.1 10.9 11.5 74 2.5 SSE 30 43 16 23 1016.2 1016.2 0.2
26/04:30am 16.3 11.9 11.7 74 2.5 SSE 26 37 14 20 1016.1 1016.1 0.2
26/04:00am 16.3 11.8 11.5 73 2.6 SSE 26 35 14 19 1016.0 1016.0 0.2
26/03:30am 16.3 10.6 11.2 72 2.7 S 32 41 17 22 1015.9 1015.9 0.2
26/03:00am 16.2 10.6 11.6 74 2.5 SSE 32 43 17 23 1016.1 1016.1 0.2
26/02:30am 16.0 10.3 11.2 73 2.6 SSE 32 48 17 26 1016.2 1016.2 0.2
26/02:07am 16.0 11.1 11.4 74 2.5 SSE 28 46 15 25 1016.4 1016.4 0.2
26/02:00am 16.1 10.4 11.3 73 2.6 SSE 32 46 17 25 1016.4 1016.4 0.2
26/01:30am 16.2 11.4 11.6 74 2.5 SSE 28 41 15 22 1016.4 1016.4 0.2
26/01:00am 16.0 11.1 11.2 73 2.6 S 28 39 15 21 1016.7 1016.7 0.2
26/12:30am 15.7 9.7 10.7 72 2.6 S 33 46 18 25 1016.7 1016.7 0.2
26/12:00am 15.8 9.9 11.0 73 2.6 S 33 48 18 26 1016.8 1016.8 0.2
 
Date/Time
CDT
Temp
°C
App
Temp
°C
Dew
Point
°C
Rel
Hum
%
Delta-T
°C
Wind Press
QNH
hPa
Press
MSL
hPa
Rain since
9am
mm
Dir  Spd
km/h
Gust
km/h
Spd
kts
Gust
kts
25/11:36pm 15.6 9.1 10.4 71 2.7 S 35 54 19 29 1016.8 1016.8 0.2
25/11:30pm 15.5 9.4 10.5 72 2.6 S 33 46 18 25 1016.8 1016.8 0.2
25/11:00pm 15.7 10.0 11.3 75 2.4 SSE 32 50 17 27 1016.5 1016.5 0.2
25/10:56pm 15.8 10.5 11.2 74 2.5 SSE 30 50 16 27 1016.4 1016.4 0.2
25/10:30pm 16.1 10.2 11.3 73 2.6 S 33 50 18 27 1016.0 1016.0 0.2
25/10:05pm 16.2 10.6 11.6 74 2.5 S 32 50 17 27 1015.8 1015.8 0.2
25/10:00pm 16.3 10.5 11.5 73 2.6 S 33 50 18 27 1015.8 1015.8 0.2
25/09:30pm 16.9 10.4 11.6 71 2.9 S 37 50 20 27 1015.4 1015.4 0.2
25/09:11pm 16.9 9.5 12.4 75 2.5 S 43 63 23 34 1015.0 1015.0 0.2
25/09:00pm 17.1 9.4 12.2 73 2.7 S 44 56 24 30 1014.9 1014.9 0.2
25/08:30pm 17.4 10.1 12.9 75 2.5 S 43 59 23 32 1014.3 1014.3 0.2
25/08:28pm 17.4 10.6 13.1 76 2.4 S 41 59 22 32 1014.4 1014.4 0.2
25/08:00pm 17.9 10.4 12.6 71 3.0 SSW 44 61 24 33 1013.9 1013.8 0.2
25/07:33pm 18.4 10.3 12.2 67 3.4 S 46 65 25 35 1013.5 1013.4 0.2
25/07:30pm 18.4 10.3 12.2 67 3.4 S 46 63 25 34 1013.5 1013.4 0.2
25/07:09pm 18.9 10.8 11.9 64 3.9 S 46 65 25 35 1013.2 1013.1 0.2
25/07:00pm 19.2 11.1 12.2 64 3.9 SSW 46 61 25 33 1013.1 1013.0 0.2
25/06:30pm 19.4 11.0 12.4 64 3.9 SSW 48 67 26 36 1012.5 1012.4 0.2
25/06:18pm 19.7 11.0 12.5 63 4.0 SSW 50 69 27 37 1012.5 1012.4 0.2
25/06:00pm 19.6 11.0 12.8 65 3.8 S 50 65 27 35 1012.1 1012.0 0.2
25/05:30pm 19.7 10.6 12.5 63 4.0 SSW 52 67 28 36 1011.8 1011.7 0.2
25/05:14pm 20.3 11.5 13.3 64 4.0 SSW 52 70 28 38 1011.6 1011.5 0.2
25/05:00pm 20.0 10.6 12.7 63 4.1 S 54 70 29 38 1011.5 1011.4 0.2
25/04:39pm 20.0 10.7 13.2 65 3.9 S 54 72 29 39 1011.5 1011.4 0.2
25/04:30pm 20.6 11.7 14.3 67 3.7 SSW 54 70 29 38 1011.7 1011.6 0.2
25/04:00pm 20.5 11.5 13.9 66 3.8 S 54 74 29 40 1011.5 1011.4 0.2
25/03:30pm 21.0 12.5 14.4 66 3.9 SSW 52 78 28 42 1011.6 1011.5 0.2
25/03:22pm 20.6 11.7 14.3 67 3.7 S 54 72 29 39 1011.4 1011.3 0.2
25/03:00pm 20.8 12.0 14.5 67 3.7 S 54 69 29 37 1011.3 1011.2 0.2
25/02:33pm 21.0 12.9 14.4 66 3.9 SSW 50 69 27 37 1011.2 1011.1 0.2
25/02:30pm 21.5 13.7 15.3 68 3.7 S 50 67 27 36 1011.3 1011.2 0.2
25/02:05pm 20.9 12.8 15.4 71 3.3 SSW 52 70 28 38 1011.2 1011.1 0.2
25/02:00pm 20.4 12.0 14.7 70 3.3 SSW 52 69 28 37 1011.3 1011.2 0.2
25/01:55pm 20.0 11.9 14.4 70 3.3 SSW 50 69 27 37 1011.3 1011.2 0.2
25/01:30pm 20.5 12.7 14.2 67 3.7 SSW 48 63 26 34 1011.4 1011.3 0.2
25/01:15pm 21.2 14.3 15.5 70 3.4 S 46 65 25 35 1011.5 1011.4 0.2
25/01:00pm 20.1 12.5 14.7 71 3.2 SSW 48 63 26 34 1011.6 1011.5 0.2
25/12:47pm 20.0 12.8 14.8 72 3.0 SSW 46 65 25 35 1011.7 1011.6 0.2
25/12:30pm 20.1 12.9 14.7 71 3.2 SSW 46 59 25 32 1011.7 1011.6 0.2
25/12:00pm 19.9 12.8 14.9 73 2.9 SSW 46 61 25 33 1011.7 1011.6 0.2
25/11:51am 19.7 13.2 15.1 75 2.7 SSW 43 61 23 33 1011.8 1011.7 0.2
25/11:30am 18.9 12.7 15.0 78 2.3 SSW 41 57 22 31 1012.0 1011.9 0.0
25/11:24am 19.0 12.9 15.1 78 2.3 SSW 41 57 22 31 1012.1 1012.0 0.0
25/11:18am 18.6 12.7 14.7 78 2.3 SSW 39 57 21 31 1012.0 1011.9 0.0
25/11:00am 18.1 11.9 15.0 82 1.8 SSW 41 56 22 30 1012.0 1011.9 0.0
25/10:48am 18.4 12.8 15.5 83 1.7 SSW 39 56 21 30 1012.1 1012.0 0.0

Other formats

Comma delimited format used in spreadsheet applications
http://www.bom.gov.au/fwo/IDS60801/IDS60801.95664.axf

JavaScript Object Notation format (JSON) in row-major order
http://www.bom.gov.au/fwo/IDS60801/IDS60801.95664.json

Data quality

Most of these data are generated automatically and are frequently updated. Quality checks on data are not normally performed. It is possible for incorrect values to appear. Refer to information at About Latest Weather Observations and please check the disclaimer before using these data.